sensor_id;sensor_type;location;lat;lon;timestamp;P1;durP1;ratioP1;P2;durP2;ratioP2
52734;SDS011;38631;47.572;10.704;2023-02-28T00:01:21;10.73;;;8.27;;
52734;SDS011;38631;47.572;10.704;2023-02-28T00:03:46;13.00;;;8.20;;
52734;SDS011;38631;47.572;10.704;2023-02-28T00:06:12;12.27;;;8.98;;
52734;SDS011;38631;47.572;10.704;2023-02-28T00:08:38;10.57;;;8.02;;
52734;SDS011;38631;47.572;10.704;2023-02-28T00:11:04;10.77;;;8.50;;
52734;SDS011;38631;47.572;10.704;2023-02-28T00:13:32;12.75;;;8.77;;
52734;SDS011;38631;47.572;10.704;2023-02-28T00:16:01;10.40;;;8.35;;
52734;SDS011;38631;47.572;10.704;2023-02-28T00:18:30;11.50;;;8.00;;
52734;SDS011;38631;47.572;10.704;2023-02-28T00:20:56;12.68;;;8.68;;
52734;SDS011;38631;47.572;10.704;2023-02-28T00:23:22;14.98;;;8.93;;
52734;SDS011;38631;47.572;10.704;2023-02-28T00:25:47;11.18;;;8.52;;
52734;SDS011;38631;47.572;10.704;2023-02-28T00:28:13;11.60;;;8.05;;
52734;SDS011;38631;47.572;10.704;2023-02-28T00:30:39;11.05;;;8.48;;
52734;SDS011;38631;47.572;10.704;2023-02-28T00:33:04;11.15;;;8.27;;
52734;SDS011;38631;47.572;10.704;2023-02-28T00:35:29;12.88;;;9.00;;
52734;SDS011;38631;47.572;10.704;2023-02-28T00:37:55;14.07;;;9.35;;
52734;SDS011;38631;47.572;10.704;2023-02-28T00:40:20;14.20;;;8.70;;
52734;SDS011;38631;47.572;10.704;2023-02-28T00:42:45;12.73;;;8.45;;
52734;SDS011;38631;47.572;10.704;2023-02-28T00:45:11;11.60;;;8.40;;
52734;SDS011;38631;47.572;10.704;2023-02-28T00:47:37;15.52;;;9.32;;
52734;SDS011;38631;47.572;10.704;2023-02-28T00:50:03;11.40;;;8.70;;
52734;SDS011;38631;47.572;10.704;2023-02-28T00:52:29;12.02;;;8.10;;
52734;SDS011;38631;47.572;10.704;2023-02-28T00:54:54;12.75;;;8.20;;
52734;SDS011;38631;47.572;10.704;2023-02-28T00:57:20;12.30;;;8.48;;
52734;SDS011;38631;47.572;10.704;2023-02-28T00:59:45;10.60;;;7.82;;
52734;SDS011;38631;47.572;10.704;2023-02-28T01:02:10;11.05;;;8.38;;
52734;SDS011;38631;47.572;10.704;2023-02-28T01:04:36;10.38;;;7.60;;
52734;SDS011;38631;47.572;10.704;2023-02-28T01:07:01;11.73;;;7.90;;
52734;SDS011;38631;47.572;10.704;2023-02-28T01:09:26;13.98;;;8.40;;
52734;SDS011;38631;47.572;10.704;2023-02-28T01:11:52;13.38;;;8.32;;
52734;SDS011;38631;47.572;10.704;2023-02-28T01:14:17;13.50;;;8.23;;
52734;SDS011;38631;47.572;10.704;2023-02-28T01:16:43;10.45;;;8.05;;
52734;SDS011;38631;47.572;10.704;2023-02-28T01:19:08;11.45;;;8.77;;
52734;SDS011;38631;47.572;10.704;2023-02-28T01:21:34;15.02;;;9.25;;
52734;SDS011;38631;47.572;10.704;2023-02-28T01:24:00;9.65;;;8.02;;
52734;SDS011;38631;47.572;10.704;2023-02-28T01:26:26;13.75;;;8.25;;
52734;SDS011;38631;47.572;10.704;2023-02-28T01:28:51;11.30;;;7.95;;
52734;SDS011;38631;47.572;10.704;2023-02-28T01:31:18;12.20;;;8.73;;
52734;SDS011;38631;47.572;10.704;2023-02-28T01:33:44;13.93;;;8.38;;
52734;SDS011;38631;47.572;10.704;2023-02-28T01:36:11;11.38;;;8.43;;
52734;SDS011;38631;47.572;10.704;2023-02-28T01:38:39;12.02;;;7.75;;
52734;SDS011;38631;47.572;10.704;2023-02-28T01:41:04;11.70;;;8.50;;
52734;SDS011;38631;47.572;10.704;2023-02-28T01:43:52;12.05;;;8.32;;
52734;SDS011;38631;47.572;10.704;2023-02-28T01:46:19;9.55;;;8.07;;
52734;SDS011;38631;47.572;10.704;2023-02-28T01:48:48;11.60;;;8.10;;
52734;SDS011;38631;47.572;10.704;2023-02-28T01:51:20;11.52;;;8.15;;
52734;SDS011;38631;47.572;10.704;2023-02-28T01:53:53;12.73;;;7.85;;
52734;SDS011;38631;47.572;10.704;2023-02-28T01:56:24;11.45;;;8.85;;
52734;SDS011;38631;47.572;10.704;2023-02-28T01:58:55;11.35;;;8.32;;
52734;SDS011;38631;47.572;10.704;2023-02-28T02:01:21;10.65;;;8.18;;
52734;SDS011;38631;47.572;10.704;2023-02-28T02:03:49;13.23;;;8.75;;
52734;SDS011;38631;47.572;10.704;2023-02-28T02:06:21;14.35;;;8.85;;
52734;SDS011;38631;47.572;10.704;2023-02-28T02:08:48;11.50;;;8.32;;
52734;SDS011;38631;47.572;10.704;2023-02-28T02:11:13;13.65;;;9.00;;
52734;SDS011;38631;47.572;10.704;2023-02-28T02:16:23;13.70;;;9.43;;
52734;SDS011;38631;47.572;10.704;2023-02-28T02:22:19;11.20;;;8.55;;
52734;SDS011;38631;47.572;10.704;2023-02-28T02:27:46;12.95;;;9.32;;
52734;SDS011;38631;47.572;10.704;2023-02-28T02:30:44;12.50;;;9.15;;
52734;SDS011;38631;47.572;10.704;2023-02-28T02:36:03;12.32;;;9.45;;
52734;SDS011;38631;47.572;10.704;2023-02-28T02:44:40;11.00;;;8.88;;
52734;SDS011;38631;47.572;10.704;2023-02-28T02:47:15;12.23;;;8.52;;
52734;SDS011;38631;47.572;10.704;2023-02-28T02:49:49;13.02;;;9.27;;
52734;SDS011;38631;47.572;10.704;2023-02-28T02:52:18;13.18;;;9.02;;
52734;SDS011;38631;47.572;10.704;2023-02-28T02:54:48;15.20;;;9.48;;
52734;SDS011;38631;47.572;10.704;2023-02-28T02:57:41;12.93;;;8.98;;
52734;SDS011;38631;47.572;10.704;2023-02-28T03:00:12;12.60;;;8.93;;
52734;SDS011;38631;47.572;10.704;2023-02-28T03:02:41;13.53;;;10.00;;
52734;SDS011;38631;47.572;10.704;2023-02-28T03:05:09;11.70;;;9.25;;
52734;SDS011;38631;47.572;10.704;2023-02-28T03:07:43;10.98;;;9.10;;
52734;SDS011;38631;47.572;10.704;2023-02-28T03:12:53;13.07;;;9.27;;
52734;SDS011;38631;47.572;10.704;2023-02-28T03:18:28;13.05;;;8.65;;
52734;SDS011;38631;47.572;10.704;2023-02-28T03:21:04;13.13;;;8.93;;
52734;SDS011;38631;47.572;10.704;2023-02-28T03:23:42;11.32;;;8.38;;
52734;SDS011;38631;47.572;10.704;2023-02-28T03:26:19;13.52;;;8.77;;
52734;SDS011;38631;47.572;10.704;2023-02-28T03:28:53;11.57;;;8.57;;
52734;SDS011;38631;47.572;10.704;2023-02-28T03:31:30;12.30;;;8.90;;
52734;SDS011;38631;47.572;10.704;2023-02-28T03:34:06;11.20;;;8.43;;
52734;SDS011;38631;47.572;10.704;2023-02-28T03:36:37;11.50;;;8.35;;
52734;SDS011;38631;47.572;10.704;2023-02-28T03:39:09;10.75;;;8.80;;
52734;SDS011;38631;47.572;10.704;2023-02-28T03:41:46;14.02;;;9.57;;
52734;SDS011;38631;47.572;10.704;2023-02-28T03:44:28;12.68;;;9.07;;
52734;SDS011;38631;47.572;10.704;2023-02-28T03:47:12;15.55;;;9.73;;
52734;SDS011;38631;47.572;10.704;2023-02-28T03:49:54;12.77;;;9.43;;
52734;SDS011;38631;47.572;10.704;2023-02-28T03:52:31;14.13;;;9.30;;
52734;SDS011;38631;47.572;10.704;2023-02-28T03:55:00;14.30;;;9.95;;
52734;SDS011;38631;47.572;10.704;2023-02-28T03:57:33;11.68;;;9.07;;
52734;SDS011;38631;47.572;10.704;2023-02-28T04:00:09;15.57;;;10.15;;
52734;SDS011;38631;47.572;10.704;2023-02-28T04:02:43;12.85;;;9.27;;
52734;SDS011;38631;47.572;10.704;2023-02-28T04:05:09;12.95;;;9.70;;
52734;SDS011;38631;47.572;10.704;2023-02-28T04:07:34;13.73;;;9.75;;
52734;SDS011;38631;47.572;10.704;2023-02-28T04:10:00;12.20;;;8.70;;
52734;SDS011;38631;47.572;10.704;2023-02-28T04:12:25;12.90;;;9.32;;
52734;SDS011;38631;47.572;10.704;2023-02-28T04:14:51;16.27;;;10.63;;
52734;SDS011;38631;47.572;10.704;2023-02-28T04:17:16;11.93;;;9.45;;
52734;SDS011;38631;47.572;10.704;2023-02-28T04:19:43;13.43;;;9.52;;
52734;SDS011;38631;47.572;10.704;2023-02-28T04:22:09;13.50;;;9.93;;
52734;SDS011;38631;47.572;10.704;2023-02-28T04:24:34;14.80;;;10.35;;
52734;SDS011;38631;47.572;10.704;2023-02-28T04:27:00;14.80;;;9.80;;
52734;SDS011;38631;47.572;10.704;2023-02-28T04:29:27;12.43;;;8.75;;
52734;SDS011;38631;47.572;10.704;2023-02-28T04:31:54;12.93;;;9.50;;
52734;SDS011;38631;47.572;10.704;2023-02-28T04:34:22;13.30;;;9.93;;
52734;SDS011;38631;47.572;10.704;2023-02-28T04:36:48;12.95;;;9.63;;
52734;SDS011;38631;47.572;10.704;2023-02-28T04:39:15;14.75;;;10.25;;
52734;SDS011;38631;47.572;10.704;2023-02-28T04:41:43;13.95;;;10.25;;
52734;SDS011;38631;47.572;10.704;2023-02-28T04:44:08;13.70;;;9.93;;
52734;SDS011;38631;47.572;10.704;2023-02-28T04:46:34;16.17;;;10.80;;
52734;SDS011;38631;47.572;10.704;2023-02-28T04:48:59;13.82;;;10.15;;
52734;SDS011;38631;47.572;10.704;2023-02-28T04:51:25;14.75;;;10.27;;
52734;SDS011;38631;47.572;10.704;2023-02-28T04:53:50;13.85;;;10.52;;
52734;SDS011;38631;47.572;10.704;2023-02-28T04:56:17;15.88;;;11.30;;
52734;SDS011;38631;47.572;10.704;2023-02-28T04:58:43;14.70;;;10.63;;
52734;SDS011;38631;47.572;10.704;2023-02-28T05:01:20;13.35;;;10.32;;
52734;SDS011;38631;47.572;10.704;2023-02-28T05:03:51;13.52;;;10.43;;
52734;SDS011;38631;47.572;10.704;2023-02-28T05:06:18;16.52;;;11.45;;
52734;SDS011;38631;47.572;10.704;2023-02-28T05:08:45;16.08;;;10.95;;
52734;SDS011;38631;47.572;10.704;2023-02-28T05:11:17;15.00;;;10.98;;
52734;SDS011;38631;47.572;10.704;2023-02-28T05:13:43;16.25;;;10.65;;
52734;SDS011;38631;47.572;10.704;2023-02-28T05:16:08;17.30;;;11.10;;
52734;SDS011;38631;47.572;10.704;2023-02-28T05:18:34;16.55;;;11.70;;
52734;SDS011;38631;47.572;10.704;2023-02-28T05:20:59;15.35;;;12.13;;
52734;SDS011;38631;47.572;10.704;2023-02-28T05:23:27;17.98;;;11.93;;
52734;SDS011;38631;47.572;10.704;2023-02-28T05:25:52;16.40;;;10.95;;
52734;SDS011;38631;47.572;10.704;2023-02-28T05:28:19;20.83;;;13.32;;
52734;SDS011;38631;47.572;10.704;2023-02-28T05:30:44;19.70;;;12.75;;
52734;SDS011;38631;47.572;10.704;2023-02-28T05:33:10;16.15;;;12.38;;
52734;SDS011;38631;47.572;10.704;2023-02-28T05:35:37;17.75;;;11.95;;
52734;SDS011;38631;47.572;10.704;2023-02-28T05:38:04;17.60;;;11.70;;
52734;SDS011;38631;47.572;10.704;2023-02-28T05:40:29;15.75;;;11.75;;
52734;SDS011;38631;47.572;10.704;2023-02-28T05:42:54;15.30;;;11.30;;
52734;SDS011;38631;47.572;10.704;2023-02-28T05:45:20;19.02;;;12.15;;
52734;SDS011;38631;47.572;10.704;2023-02-28T05:47:45;14.48;;;11.07;;
52734;SDS011;38631;47.572;10.704;2023-02-28T05:50:10;16.73;;;11.32;;
52734;SDS011;38631;47.572;10.704;2023-02-28T05:52:36;17.42;;;11.82;;
52734;SDS011;38631;47.572;10.704;2023-02-28T05:55:02;17.73;;;12.02;;
52734;SDS011;38631;47.572;10.704;2023-02-28T05:57:28;18.45;;;13.00;;
52734;SDS011;38631;47.572;10.704;2023-02-28T05:59:53;17.33;;;12.05;;
52734;SDS011;38631;47.572;10.704;2023-02-28T06:02:19;19.35;;;12.68;;
52734;SDS011;38631;47.572;10.704;2023-02-28T06:04:44;17.08;;;11.95;;
52734;SDS011;38631;47.572;10.704;2023-02-28T06:07:10;15.07;;;11.15;;
52734;SDS011;38631;47.572;10.704;2023-02-28T06:09:36;17.13;;;11.75;;
52734;SDS011;38631;47.572;10.704;2023-02-28T06:12:02;19.92;;;12.98;;
52734;SDS011;38631;47.572;10.704;2023-02-28T06:14:30;17.70;;;11.90;;
52734;SDS011;38631;47.572;10.704;2023-02-28T06:16:57;17.33;;;12.05;;
52734;SDS011;38631;47.572;10.704;2023-02-28T06:19:24;16.15;;;11.43;;
52734;SDS011;38631;47.572;10.704;2023-02-28T06:21:54;15.88;;;11.23;;
52734;SDS011;38631;47.572;10.704;2023-02-28T06:24:20;18.88;;;12.18;;
52734;SDS011;38631;47.572;10.704;2023-02-28T06:26:46;15.68;;;10.90;;
52734;SDS011;38631;47.572;10.704;2023-02-28T06:29:11;19.50;;;12.77;;
52734;SDS011;38631;47.572;10.704;2023-02-28T06:31:37;18.65;;;11.48;;
52734;SDS011;38631;47.572;10.704;2023-02-28T06:34:03;17.17;;;11.68;;
52734;SDS011;38631;47.572;10.704;2023-02-28T06:36:29;16.75;;;11.50;;
52734;SDS011;38631;47.572;10.704;2023-02-28T06:38:55;19.35;;;12.38;;
52734;SDS011;38631;47.572;10.704;2023-02-28T06:41:24;17.23;;;13.02;;
52734;SDS011;38631;47.572;10.704;2023-02-28T06:43:50;16.85;;;10.77;;
52734;SDS011;38631;47.572;10.704;2023-02-28T06:46:17;17.30;;;11.82;;
52734;SDS011;38631;47.572;10.704;2023-02-28T06:48:43;16.90;;;11.68;;
52734;SDS011;38631;47.572;10.704;2023-02-28T06:51:13;17.77;;;11.98;;
52734;SDS011;38631;47.572;10.704;2023-02-28T06:53:41;17.33;;;12.80;;
52734;SDS011;38631;47.572;10.704;2023-02-28T06:56:11;19.08;;;11.45;;
52734;SDS011;38631;47.572;10.704;2023-02-28T06:58:39;16.88;;;11.93;;
52734;SDS011;38631;47.572;10.704;2023-02-28T07:01:05;20.95;;;12.73;;
52734;SDS011;38631;47.572;10.704;2023-02-28T07:03:30;18.58;;;12.75;;
52734;SDS011;38631;47.572;10.704;2023-02-28T07:05:56;17.02;;;12.18;;
52734;SDS011;38631;47.572;10.704;2023-02-28T07:08:22;17.27;;;12.30;;
52734;SDS011;38631;47.572;10.704;2023-02-28T07:10:51;17.27;;;12.00;;
52734;SDS011;38631;47.572;10.704;2023-02-28T07:13:17;17.02;;;12.52;;
52734;SDS011;38631;47.572;10.704;2023-02-28T07:15:42;16.60;;;12.02;;
52734;SDS011;38631;47.572;10.704;2023-02-28T07:18:08;18.90;;;12.50;;
52734;SDS011;38631;47.572;10.704;2023-02-28T07:20:33;16.00;;;11.98;;
52734;SDS011;38631;47.572;10.704;2023-02-28T07:22:58;17.67;;;11.52;;
52734;SDS011;38631;47.572;10.704;2023-02-28T07:25:25;17.90;;;11.45;;
52734;SDS011;38631;47.572;10.704;2023-02-28T07:27:51;17.83;;;11.30;;
52734;SDS011;38631;47.572;10.704;2023-02-28T07:30:17;17.85;;;11.38;;
52734;SDS011;38631;47.572;10.704;2023-02-28T07:32:43;20.20;;;12.45;;
52734;SDS011;38631;47.572;10.704;2023-02-28T07:35:08;17.42;;;11.30;;
52734;SDS011;38631;47.572;10.704;2023-02-28T07:37:34;22.65;;;12.52;;
52734;SDS011;38631;47.572;10.704;2023-02-28T07:40:02;19.00;;;11.75;;
52734;SDS011;38631;47.572;10.704;2023-02-28T07:42:31;15.00;;;10.43;;
52734;SDS011;38631;47.572;10.704;2023-02-28T07:44:56;17.15;;;11.50;;
52734;SDS011;38631;47.572;10.704;2023-02-28T07:47:22;16.92;;;11.20;;
52734;SDS011;38631;47.572;10.704;2023-02-28T07:49:47;16.08;;;10.63;;
52734;SDS011;38631;47.572;10.704;2023-02-28T07:52:12;21.05;;;12.25;;
52734;SDS011;38631;47.572;10.704;2023-02-28T07:54:38;17.50;;;11.90;;
52734;SDS011;38631;47.572;10.704;2023-02-28T07:57:03;18.90;;;12.15;;
52734;SDS011;38631;47.572;10.704;2023-02-28T07:59:28;16.95;;;11.13;;
52734;SDS011;38631;47.572;10.704;2023-02-28T08:01:54;17.17;;;10.80;;
52734;SDS011;38631;47.572;10.704;2023-02-28T08:04:22;16.02;;;10.25;;
52734;SDS011;38631;47.572;10.704;2023-02-28T08:06:47;16.17;;;10.63;;
52734;SDS011;38631;47.572;10.704;2023-02-28T08:09:13;18.27;;;11.48;;
52734;SDS011;38631;47.572;10.704;2023-02-28T08:11:39;16.08;;;11.02;;
52734;SDS011;38631;47.572;10.704;2023-02-28T08:14:04;15.27;;;11.00;;
52734;SDS011;38631;47.572;10.704;2023-02-28T08:16:30;17.00;;;11.38;;
52734;SDS011;38631;47.572;10.704;2023-02-28T08:18:56;15.63;;;10.80;;
52734;SDS011;38631;47.572;10.704;2023-02-28T08:21:21;16.77;;;11.32;;
52734;SDS011;38631;47.572;10.704;2023-02-28T08:23:47;16.35;;;10.18;;
52734;SDS011;38631;47.572;10.704;2023-02-28T08:26:15;14.70;;;10.57;;
52734;SDS011;38631;47.572;10.704;2023-02-28T08:28:41;16.10;;;11.43;;
52734;SDS011;38631;47.572;10.704;2023-02-28T08:31:08;15.10;;;10.50;;
52734;SDS011;38631;47.572;10.704;2023-02-28T08:33:34;13.52;;;9.68;;
52734;SDS011;38631;47.572;10.704;2023-02-28T08:36:00;15.75;;;10.93;;
52734;SDS011;38631;47.572;10.704;2023-02-28T08:38:25;16.30;;;11.43;;
52734;SDS011;38631;47.572;10.704;2023-02-28T08:40:56;17.83;;;11.10;;
52734;SDS011;38631;47.572;10.704;2023-02-28T08:43:23;16.83;;;11.90;;
52734;SDS011;38631;47.572;10.704;2023-02-28T08:45:51;21.60;;;11.45;;
52734;SDS011;38631;47.572;10.704;2023-02-28T08:48:17;15.50;;;10.43;;
52734;SDS011;38631;47.572;10.704;2023-02-28T08:50:42;16.92;;;12.00;;
52734;SDS011;38631;47.572;10.704;2023-02-28T08:53:07;17.92;;;11.70;;
52734;SDS011;38631;47.572;10.704;2023-02-28T08:55:33;18.67;;;11.98;;
52734;SDS011;38631;47.572;10.704;2023-02-28T08:57:58;18.15;;;11.98;;
52734;SDS011;38631;47.572;10.704;2023-02-28T09:00:23;18.65;;;11.98;;
52734;SDS011;38631;47.572;10.704;2023-02-28T09:02:49;18.20;;;10.98;;
52734;SDS011;38631;47.572;10.704;2023-02-28T09:05:14;17.05;;;11.75;;
52734;SDS011;38631;47.572;10.704;2023-02-28T09:07:40;19.42;;;11.48;;
52734;SDS011;38631;47.572;10.704;2023-02-28T09:10:05;17.70;;;11.35;;
52734;SDS011;38631;47.572;10.704;2023-02-28T09:12:33;17.45;;;11.90;;
52734;SDS011;38631;47.572;10.704;2023-02-28T09:15:00;17.05;;;11.20;;
52734;SDS011;38631;47.572;10.704;2023-02-28T09:17:25;19.00;;;11.30;;
52734;SDS011;38631;47.572;10.704;2023-02-28T09:19:50;15.20;;;10.93;;
52734;SDS011;38631;47.572;10.704;2023-02-28T09:22:16;16.10;;;11.30;;
52734;SDS011;38631;47.572;10.704;2023-02-28T09:24:41;17.40;;;12.10;;
52734;SDS011;38631;47.572;10.704;2023-02-28T09:27:07;18.85;;;12.15;;
52734;SDS011;38631;47.572;10.704;2023-02-28T09:29:32;18.58;;;11.80;;
52734;SDS011;38631;47.572;10.704;2023-02-28T09:31:58;19.60;;;11.85;;
52734;SDS011;38631;47.572;10.704;2023-02-28T09:34:24;18.92;;;12.30;;
52734;SDS011;38631;47.572;10.704;2023-02-28T09:36:50;16.05;;;11.68;;
52734;SDS011;38631;47.572;10.704;2023-02-28T09:39:20;14.83;;;10.90;;
52734;SDS011;38631;47.572;10.704;2023-02-28T09:41:47;18.70;;;12.20;;
52734;SDS011;38631;47.572;10.704;2023-02-28T09:44:18;17.55;;;11.57;;
52734;SDS011;38631;47.572;10.704;2023-02-28T09:46:51;18.05;;;12.63;;
52734;SDS011;38631;47.572;10.704;2023-02-28T09:49:37;18.83;;;12.25;;
52734;SDS011;38631;47.572;10.704;2023-02-28T09:52:10;21.10;;;14.48;;
52734;SDS011;38631;47.572;10.704;2023-02-28T09:54:38;19.30;;;11.98;;
52734;SDS011;38631;47.572;10.704;2023-02-28T10:05:10;20.58;;;13.65;;
52734;SDS011;38631;47.572;10.704;2023-02-28T10:12:55;20.95;;;14.18;;
52734;SDS011;38631;47.572;10.704;2023-02-28T10:15:24;21.53;;;14.03;;
52734;SDS011;38631;47.572;10.704;2023-02-28T10:17:57;21.23;;;13.07;;
52734;SDS011;38631;47.572;10.704;2023-02-28T10:20:28;18.23;;;12.80;;
52734;SDS011;38631;47.572;10.704;2023-02-28T10:23:04;20.33;;;13.82;;
52734;SDS011;38631;47.572;10.704;2023-02-28T10:25:41;19.98;;;12.23;;
52734;SDS011;38631;47.572;10.704;2023-02-28T10:28:14;17.50;;;11.98;;
52734;SDS011;38631;47.572;10.704;2023-02-28T10:35:53;17.27;;;12.65;;
52734;SDS011;38631;47.572;10.704;2023-02-28T10:38:25;21.40;;;13.75;;
52734;SDS011;38631;47.572;10.704;2023-02-28T10:41:02;19.67;;;13.73;;
52734;SDS011;38631;47.572;10.704;2023-02-28T10:43:30;19.13;;;13.32;;
52734;SDS011;38631;47.572;10.704;2023-02-28T10:45:56;18.38;;;12.35;;
52734;SDS011;38631;47.572;10.704;2023-02-28T10:48:29;18.80;;;12.95;;
52734;SDS011;38631;47.572;10.704;2023-02-28T10:50:57;18.50;;;12.65;;
52734;SDS011;38631;47.572;10.704;2023-02-28T10:55:56;19.13;;;12.23;;
52734;SDS011;38631;47.572;10.704;2023-02-28T11:03:49;22.80;;;13.57;;
52734;SDS011;38631;47.572;10.704;2023-02-28T11:06:20;20.40;;;12.85;;
52734;SDS011;38631;47.572;10.704;2023-02-28T11:08:57;16.65;;;11.38;;
52734;SDS011;38631;47.572;10.704;2023-02-28T11:11:26;19.20;;;12.98;;
52734;SDS011;38631;47.572;10.704;2023-02-28T11:13:55;17.13;;;12.27;;
52734;SDS011;38631;47.572;10.704;2023-02-28T11:16:34;17.05;;;11.50;;
52734;SDS011;38631;47.572;10.704;2023-02-28T11:19:02;18.63;;;12.77;;
52734;SDS011;38631;47.572;10.704;2023-02-28T11:24:01;18.35;;;12.43;;
52734;SDS011;38631;47.572;10.704;2023-02-28T11:26:35;16.60;;;12.13;;
52734;SDS011;38631;47.572;10.704;2023-02-28T11:29:09;19.52;;;12.90;;
52734;SDS011;38631;47.572;10.704;2023-02-28T11:31:37;20.38;;;14.00;;
52734;SDS011;38631;47.572;10.704;2023-02-28T11:34:07;34.40;;;17.70;;
52734;SDS011;38631;47.572;10.704;2023-02-28T11:36:48;19.52;;;13.35;;
52734;SDS011;38631;47.572;10.704;2023-02-28T11:39:14;21.83;;;13.70;;
52734;SDS011;38631;47.572;10.704;2023-02-28T11:47:47;23.70;;;15.15;;
52734;SDS011;38631;47.572;10.704;2023-02-28T11:53:00;21.70;;;15.43;;
52734;SDS011;38631;47.572;10.704;2023-02-28T12:11:06;18.95;;;13.65;;
52734;SDS011;38631;47.572;10.704;2023-02-28T12:13:45;22.23;;;13.55;;
52734;SDS011;38631;47.572;10.704;2023-02-28T12:16:34;21.70;;;14.75;;
52734;SDS011;38631;47.572;10.704;2023-02-28T12:19:27;20.70;;;13.38;;
52734;SDS011;38631;47.572;10.704;2023-02-28T12:22:12;23.13;;;13.57;;
52734;SDS011;38631;47.572;10.704;2023-02-28T12:24:55;21.05;;;13.63;;
52734;SDS011;38631;47.572;10.704;2023-02-28T12:27:43;23.52;;;14.25;;
52734;SDS011;38631;47.572;10.704;2023-02-28T12:33:04;20.10;;;13.50;;
52734;SDS011;38631;47.572;10.704;2023-02-28T12:38:19;23.77;;;15.15;;
52734;SDS011;38631;47.572;10.704;2023-02-28T12:40:52;23.25;;;14.85;;
52734;SDS011;38631;47.572;10.704;2023-02-28T12:43:22;21.75;;;13.85;;
52734;SDS011;38631;47.572;10.704;2023-02-28T12:45:53;22.75;;;15.32;;
52734;SDS011;38631;47.572;10.704;2023-02-28T12:48:25;23.65;;;15.40;;
52734;SDS011;38631;47.572;10.704;2023-02-28T12:50:56;22.50;;;14.25;;
52734;SDS011;38631;47.572;10.704;2023-02-28T12:56:12;23.95;;;16.23;;
52734;SDS011;38631;47.572;10.704;2023-02-28T12:58:50;24.60;;;15.75;;
52734;SDS011;38631;47.572;10.704;2023-02-28T13:07:18;23.48;;;15.43;;
52734;SDS011;38631;47.572;10.704;2023-02-28T13:09:58;22.75;;;15.10;;
52734;SDS011;38631;47.572;10.704;2023-02-28T13:12:26;25.10;;;16.00;;
52734;SDS011;38631;47.572;10.704;2023-02-28T13:15:01;24.00;;;14.82;;
52734;SDS011;38631;47.572;10.704;2023-02-28T13:17:36;21.77;;;14.77;;
52734;SDS011;38631;47.572;10.704;2023-02-28T13:20:03;24.42;;;15.82;;
52734;SDS011;38631;47.572;10.704;2023-02-28T13:25:00;26.75;;;16.42;;
52734;SDS011;38631;47.572;10.704;2023-02-28T13:27:38;26.92;;;16.20;;
52734;SDS011;38631;47.572;10.704;2023-02-28T13:33:04;24.52;;;15.07;;
52734;SDS011;38631;47.572;10.704;2023-02-28T13:38:36;26.00;;;15.52;;
52734;SDS011;38631;47.572;10.704;2023-02-28T13:44:00;26.52;;;17.35;;
52734;SDS011;38631;47.572;10.704;2023-02-28T13:46:30;27.27;;;17.60;;
52734;SDS011;38631;47.572;10.704;2023-02-28T13:49:17;27.17;;;17.08;;
52734;SDS011;38631;47.572;10.704;2023-02-28T13:51:51;26.88;;;17.35;;
52734;SDS011;38631;47.572;10.704;2023-02-28T13:57:53;25.08;;;17.08;;
52734;SDS011;38631;47.572;10.704;2023-02-28T14:00:34;27.10;;;16.30;;
52734;SDS011;38631;47.572;10.704;2023-02-28T14:05:42;28.45;;;17.80;;
52734;SDS011;38631;47.572;10.704;2023-02-28T14:08:12;27.02;;;16.77;;
52734;SDS011;38631;47.572;10.704;2023-02-28T14:10:44;27.77;;;16.67;;
52734;SDS011;38631;47.572;10.704;2023-02-28T14:16:09;26.75;;;17.65;;
52734;SDS011;38631;47.572;10.704;2023-02-28T14:18:37;27.05;;;16.83;;
52734;SDS011;38631;47.572;10.704;2023-02-28T14:23:41;27.23;;;18.17;;
52734;SDS011;38631;47.572;10.704;2023-02-28T14:28:49;27.15;;;17.38;;
52734;SDS011;38631;47.572;10.704;2023-02-28T14:31:39;29.67;;;18.10;;
52734;SDS011;38631;47.572;10.704;2023-02-28T14:36:42;25.00;;;17.00;;
52734;SDS011;38631;47.572;10.704;2023-02-28T14:39:12;24.42;;;16.30;;
52734;SDS011;38631;47.572;10.704;2023-02-28T14:41:40;26.38;;;17.35;;
52734;SDS011;38631;47.572;10.704;2023-02-28T14:44:18;28.98;;;18.13;;
52734;SDS011;38631;47.572;10.704;2023-02-28T14:46:46;30.40;;;17.35;;
52734;SDS011;38631;47.572;10.704;2023-02-28T14:51:51;26.92;;;17.42;;
52734;SDS011;38631;47.572;10.704;2023-02-28T14:54:28;28.45;;;17.38;;
52734;SDS011;38631;47.572;10.704;2023-02-28T14:56:54;31.48;;;18.50;;
52734;SDS011;38631;47.572;10.704;2023-02-28T14:59:30;29.63;;;18.02;;
52734;SDS011;38631;47.572;10.704;2023-02-28T15:05:23;26.58;;;17.23;;
52734;SDS011;38631;47.572;10.704;2023-02-28T15:08:00;26.27;;;17.00;;
52734;SDS011;38631;47.572;10.704;2023-02-28T15:10:30;29.47;;;17.70;;
52734;SDS011;38631;47.572;10.704;2023-02-28T15:12:57;28.50;;;17.55;;
52734;SDS011;38631;47.572;10.704;2023-02-28T15:15:32;26.15;;;17.65;;
52734;SDS011;38631;47.572;10.704;2023-02-28T15:18:03;27.52;;;17.23;;
52734;SDS011;38631;47.572;10.704;2023-02-28T15:20:31;26.48;;;17.42;;
52734;SDS011;38631;47.572;10.704;2023-02-28T15:22:57;28.55;;;17.20;;
52734;SDS011;38631;47.572;10.704;2023-02-28T15:25:24;30.23;;;18.70;;
52734;SDS011;38631;47.572;10.704;2023-02-28T15:27:52;28.90;;;17.35;;
52734;SDS011;38631;47.572;10.704;2023-02-28T15:30:20;33.50;;;20.80;;
52734;SDS011;38631;47.572;10.704;2023-02-28T15:33:04;33.58;;;20.10;;
52734;SDS011;38631;47.572;10.704;2023-02-28T15:35:36;35.05;;;20.92;;
52734;SDS011;38631;47.572;10.704;2023-02-28T15:38:03;36.70;;;21.52;;
52734;SDS011;38631;47.572;10.704;2023-02-28T15:40:49;31.67;;;20.55;;
52734;SDS011;38631;47.572;10.704;2023-02-28T15:43:35;31.95;;;21.33;;
52734;SDS011;38631;47.572;10.704;2023-02-28T15:46:02;33.92;;;21.80;;
52734;SDS011;38631;47.572;10.704;2023-02-28T15:48:32;30.60;;;19.23;;
52734;SDS011;38631;47.572;10.704;2023-02-28T15:51:06;33.63;;;20.83;;
52734;SDS011;38631;47.572;10.704;2023-02-28T15:53:40;39.80;;;23.38;;
52734;SDS011;38631;47.572;10.704;2023-02-28T15:56:20;33.97;;;20.67;;
52734;SDS011;38631;47.572;10.704;2023-02-28T15:58:50;31.13;;;21.02;;
52734;SDS011;38631;47.572;10.704;2023-02-28T16:03:45;33.38;;;21.25;;
52734;SDS011;38631;47.572;10.704;2023-02-28T16:08:41;34.58;;;21.27;;
52734;SDS011;38631;47.572;10.704;2023-02-28T16:11:08;31.83;;;19.98;;
52734;SDS011;38631;47.572;10.704;2023-02-28T16:13:35;32.17;;;20.73;;
52734;SDS011;38631;47.572;10.704;2023-02-28T16:16:00;32.15;;;20.27;;
52734;SDS011;38631;47.572;10.704;2023-02-28T16:18:26;36.95;;;22.08;;
52734;SDS011;38631;47.572;10.704;2023-02-28T16:20:52;32.20;;;21.20;;
52734;SDS011;38631;47.572;10.704;2023-02-28T16:23:17;34.15;;;21.23;;
52734;SDS011;38631;47.572;10.704;2023-02-28T16:25:43;33.25;;;20.95;;
52734;SDS011;38631;47.572;10.704;2023-02-28T16:28:24;35.50;;;21.17;;
52734;SDS011;38631;47.572;10.704;2023-02-28T16:30:57;34.00;;;21.63;;
52734;SDS011;38631;47.572;10.704;2023-02-28T16:33:24;29.77;;;20.13;;
52734;SDS011;38631;47.572;10.704;2023-02-28T16:35:49;34.45;;;22.08;;